sensor_id;sensor_type;location;lat;lon;timestamp;P1;durP1;ratioP1;P2;durP2;ratioP2
23506;SDS011;11930;53.076;18.250;2022-08-03T00:00:07;10.97;;;4.77;;
23506;SDS011;11930;53.076;18.250;2022-08-03T00:03:00;9.60;;;4.63;;
23506;SDS011;11930;53.076;18.250;2022-08-03T00:05:26;8.53;;;4.93;;
23506;SDS011;11930;53.076;18.250;2022-08-03T00:07:52;10.47;;;4.63;;
23506;SDS011;11930;53.076;18.250;2022-08-03T00:10:18;8.93;;;4.80;;
23506;SDS011;11930;53.076;18.250;2022-08-03T00:12:44;7.67;;;4.80;;
23506;SDS011;11930;53.076;18.250;2022-08-03T00:15:10;9.53;;;4.63;;
23506;SDS011;11930;53.076;18.250;2022-08-03T00:17:36;9.07;;;5.00;;
23506;SDS011;11930;53.076;18.250;2022-08-03T00:20:02;11.47;;;5.30;;
23506;SDS011;11930;53.076;18.250;2022-08-03T00:22:28;11.17;;;5.13;;
23506;SDS011;11930;53.076;18.250;2022-08-03T00:24:54;8.90;;;4.53;;
23506;SDS011;11930;53.076;18.250;2022-08-03T00:27:20;9.80;;;5.00;;
23506;SDS011;11930;53.076;18.250;2022-08-03T00:29:46;11.23;;;5.33;;
23506;SDS011;11930;53.076;18.250;2022-08-03T00:32:12;8.50;;;4.93;;
23506;SDS011;11930;53.076;18.250;2022-08-03T00:34:38;8.90;;;5.10;;
23506;SDS011;11930;53.076;18.250;2022-08-03T00:37:04;11.23;;;5.13;;
23506;SDS011;11930;53.076;18.250;2022-08-03T00:39:30;8.63;;;5.47;;
23506;SDS011;11930;53.076;18.250;2022-08-03T00:41:56;11.50;;;5.13;;
23506;SDS011;11930;53.076;18.250;2022-08-03T00:44:21;10.00;;;4.80;;
23506;SDS011;11930;53.076;18.250;2022-08-03T00:46:47;9.47;;;5.17;;
23506;SDS011;11930;53.076;18.250;2022-08-03T00:49:14;9.43;;;4.67;;
23506;SDS011;11930;53.076;18.250;2022-08-03T00:51:39;12.90;;;5.27;;
23506;SDS011;11930;53.076;18.250;2022-08-03T00:54:05;9.50;;;5.37;;
23506;SDS011;11930;53.076;18.250;2022-08-03T00:56:31;9.93;;;5.50;;
23506;SDS011;11930;53.076;18.250;2022-08-03T00:58:57;7.73;;;4.97;;
23506;SDS011;11930;53.076;18.250;2022-08-03T01:01:23;10.47;;;5.00;;
23506;SDS011;11930;53.076;18.250;2022-08-03T01:03:50;10.30;;;5.33;;
23506;SDS011;11930;53.076;18.250;2022-08-03T01:06:29;10.23;;;5.40;;
23506;SDS011;11930;53.076;18.250;2022-08-03T01:11:48;9.10;;;5.07;;
23506;SDS011;11930;53.076;18.250;2022-08-03T01:17:17;11.00;;;5.53;;
23506;SDS011;11930;53.076;18.250;2022-08-03T01:19:59;8.97;;;4.90;;
23506;SDS011;11930;53.076;18.250;2022-08-03T01:28:21;10.43;;;6.37;;
23506;SDS011;11930;53.076;18.250;2022-08-03T01:31:00;11.33;;;5.50;;
23506;SDS011;11930;53.076;18.250;2022-08-03T01:33:34;10.87;;;5.90;;
23506;SDS011;11930;53.076;18.250;2022-08-03T01:36:06;13.90;;;6.10;;
23506;SDS011;11930;53.076;18.250;2022-08-03T01:38:40;10.13;;;6.23;;
23506;SDS011;11930;53.076;18.250;2022-08-03T01:41:52;10.50;;;6.07;;
23506;SDS011;11930;53.076;18.250;2022-08-03T01:44:02;9.83;;;5.73;;
23506;SDS011;11930;53.076;18.250;2022-08-03T01:46:32;11.53;;;6.00;;
23506;SDS011;11930;53.076;18.250;2022-08-03T01:49:00;13.63;;;6.53;;
23506;SDS011;11930;53.076;18.250;2022-08-03T01:51:27;11.33;;;6.00;;
23506;SDS011;11930;53.076;18.250;2022-08-03T01:53:55;10.80;;;6.07;;
23506;SDS011;11930;53.076;18.250;2022-08-03T01:56:23;11.97;;;6.60;;
23506;SDS011;11930;53.076;18.250;2022-08-03T01:58:50;11.13;;;6.60;;
23506;SDS011;11930;53.076;18.250;2022-08-03T02:01:19;11.63;;;5.80;;
23506;SDS011;11930;53.076;18.250;2022-08-03T02:03:46;10.80;;;6.00;;
23506;SDS011;11930;53.076;18.250;2022-08-03T02:06:14;11.10;;;6.37;;
23506;SDS011;11930;53.076;18.250;2022-08-03T02:08:43;13.43;;;6.50;;
23506;SDS011;11930;53.076;18.250;2022-08-03T02:11:10;15.33;;;6.43;;
23506;SDS011;11930;53.076;18.250;2022-08-03T02:13:37;10.38;;;5.45;;
23506;SDS011;11930;53.076;18.250;2022-08-03T02:16:04;10.90;;;6.40;;
23506;SDS011;11930;53.076;18.250;2022-08-03T02:18:32;10.43;;;5.80;;
23506;SDS011;11930;53.076;18.250;2022-08-03T02:21:00;11.03;;;5.70;;
23506;SDS011;11930;53.076;18.250;2022-08-03T02:23:28;11.87;;;6.57;;
23506;SDS011;11930;53.076;18.250;2022-08-03T02:25:56;9.63;;;6.17;;
23506;SDS011;11930;53.076;18.250;2022-08-03T02:28:31;14.25;;;6.68;;
23506;SDS011;11930;53.076;18.250;2022-08-03T02:31:02;10.73;;;5.80;;
23506;SDS011;11930;53.076;18.250;2022-08-03T02:33:32;12.77;;;6.07;;
23506;SDS011;11930;53.076;18.250;2022-08-03T02:36:02;11.37;;;5.63;;
23506;SDS011;11930;53.076;18.250;2022-08-03T02:38:36;12.90;;;5.63;;
23506;SDS011;11930;53.076;18.250;2022-08-03T02:41:06;11.13;;;5.93;;
23506;SDS011;11930;53.076;18.250;2022-08-03T02:43:37;13.00;;;5.82;;
23506;SDS011;11930;53.076;18.250;2022-08-03T02:46:07;13.07;;;5.77;;
23506;SDS011;11930;53.076;18.250;2022-08-03T02:48:37;13.10;;;5.97;;
23506;SDS011;11930;53.076;18.250;2022-08-03T02:51:07;13.13;;;5.77;;
23506;SDS011;11930;53.076;18.250;2022-08-03T02:53:34;14.10;;;6.13;;
23506;SDS011;11930;53.076;18.250;2022-08-03T02:56:01;12.20;;;5.70;;
23506;SDS011;11930;53.076;18.250;2022-08-03T02:58:29;13.43;;;5.53;;
23506;SDS011;11930;53.076;18.250;2022-08-03T03:00:56;13.83;;;5.70;;
23506;SDS011;11930;53.076;18.250;2022-08-03T03:03:22;9.60;;;5.40;;
23506;SDS011;11930;53.076;18.250;2022-08-03T03:05:50;11.63;;;5.00;;
23506;SDS011;11930;53.076;18.250;2022-08-03T03:08:18;10.60;;;5.30;;
23506;SDS011;11930;53.076;18.250;2022-08-03T03:10:44;11.52;;;5.45;;
23506;SDS011;11930;53.076;18.250;2022-08-03T03:13:12;9.77;;;5.47;;
23506;SDS011;11930;53.076;18.250;2022-08-03T03:15:39;12.20;;;5.50;;
23506;SDS011;11930;53.076;18.250;2022-08-03T03:18:07;9.38;;;5.20;;
23506;SDS011;11930;53.076;18.250;2022-08-03T03:20:35;10.13;;;5.90;;
23506;SDS011;11930;53.076;18.250;2022-08-03T03:23:02;10.65;;;6.10;;
23506;SDS011;11930;53.076;18.250;2022-08-03T03:25:30;11.40;;;5.90;;
23506;SDS011;11930;53.076;18.250;2022-08-03T03:28:00;11.55;;;5.75;;
23506;SDS011;11930;53.076;18.250;2022-08-03T03:30:27;10.20;;;5.45;;
23506;SDS011;11930;53.076;18.250;2022-08-03T03:32:54;9.57;;;5.53;;
23506;SDS011;11930;53.076;18.250;2022-08-03T03:35:20;24.83;;;12.90;;
23506;SDS011;11930;53.076;18.250;2022-08-03T03:37:46;24.87;;;14.70;;
23506;SDS011;11930;53.076;18.250;2022-08-03T03:40:12;13.10;;;6.55;;
23506;SDS011;11930;53.076;18.250;2022-08-03T03:42:39;13.02;;;6.55;;
23506;SDS011;11930;53.076;18.250;2022-08-03T03:45:06;12.73;;;5.93;;
23506;SDS011;11930;53.076;18.250;2022-08-03T03:47:33;9.63;;;5.72;;
23506;SDS011;11930;53.076;18.250;2022-08-03T03:50:03;9.43;;;5.32;;
23506;SDS011;11930;53.076;18.250;2022-08-03T03:52:30;12.45;;;7.05;;
23506;SDS011;11930;53.076;18.250;2022-08-03T03:54:56;11.20;;;6.30;;
23506;SDS011;11930;53.076;18.250;2022-08-03T03:57:23;8.70;;;6.13;;
23506;SDS011;11930;53.076;18.250;2022-08-03T03:59:49;14.63;;;6.32;;
23506;SDS011;11930;53.076;18.250;2022-08-03T04:02:14;10.32;;;6.28;;
23506;SDS011;11930;53.076;18.250;2022-08-03T04:04:41;15.05;;;6.53;;
23506;SDS011;11930;53.076;18.250;2022-08-03T04:07:25;18.33;;;6.70;;
23506;SDS011;11930;53.076;18.250;2022-08-03T04:10:20;12.23;;;6.50;;
23506;SDS011;11930;53.076;18.250;2022-08-03T04:13:14;10.65;;;5.68;;
23506;SDS011;11930;53.076;18.250;2022-08-03T04:15:43;15.43;;;6.22;;
23506;SDS011;11930;53.076;18.250;2022-08-03T04:18:11;12.90;;;5.82;;
23506;SDS011;11930;53.076;18.250;2022-08-03T04:20:39;11.15;;;6.07;;
23506;SDS011;11930;53.076;18.250;2022-08-03T04:23:11;17.73;;;6.72;;
23506;SDS011;11930;53.076;18.250;2022-08-03T04:25:38;13.77;;;6.28;;
23506;SDS011;11930;53.076;18.250;2022-08-03T04:28:06;9.98;;;6.43;;
23506;SDS011;11930;53.076;18.250;2022-08-03T04:30:35;11.27;;;6.80;;
23506;SDS011;11930;53.076;18.250;2022-08-03T04:33:03;15.88;;;6.72;;
23506;SDS011;11930;53.076;18.250;2022-08-03T04:35:33;12.60;;;7.00;;
23506;SDS011;11930;53.076;18.250;2022-08-03T04:38:01;12.57;;;6.75;;
23506;SDS011;11930;53.076;18.250;2022-08-03T04:40:33;12.20;;;7.13;;
23506;SDS011;11930;53.076;18.250;2022-08-03T04:43:01;11.38;;;6.90;;
23506;SDS011;11930;53.076;18.250;2022-08-03T04:45:29;10.88;;;6.93;;
23506;SDS011;11930;53.076;18.250;2022-08-03T04:47:55;10.93;;;6.45;;
23506;SDS011;11930;53.076;18.250;2022-08-03T04:50:22;12.85;;;7.13;;
23506;SDS011;11930;53.076;18.250;2022-08-03T04:53:05;11.35;;;7.45;;
23506;SDS011;11930;53.076;18.250;2022-08-03T04:55:31;14.38;;;7.70;;
23506;SDS011;11930;53.076;18.250;2022-08-03T04:57:58;10.82;;;7.22;;
23506;SDS011;11930;53.076;18.250;2022-08-03T05:00:25;10.02;;;7.07;;
23506;SDS011;11930;53.076;18.250;2022-08-03T05:02:52;11.32;;;7.15;;
23506;SDS011;11930;53.076;18.250;2022-08-03T05:05:18;10.43;;;7.53;;
23506;SDS011;11930;53.076;18.250;2022-08-03T05:07:45;15.32;;;7.20;;
23506;SDS011;11930;53.076;18.250;2022-08-03T05:10:11;11.98;;;6.82;;
23506;SDS011;11930;53.076;18.250;2022-08-03T05:12:37;11.23;;;7.10;;
23506;SDS011;11930;53.076;18.250;2022-08-03T05:15:04;10.98;;;7.05;;
23506;SDS011;11930;53.076;18.250;2022-08-03T05:17:31;11.18;;;6.88;;
23506;SDS011;11930;53.076;18.250;2022-08-03T05:20:01;15.68;;;6.88;;
23506;SDS011;11930;53.076;18.250;2022-08-03T05:22:28;13.63;;;6.82;;
23506;SDS011;11930;53.076;18.250;2022-08-03T05:24:54;10.20;;;7.20;;
23506;SDS011;11930;53.076;18.250;2022-08-03T05:27:20;13.40;;;8.02;;
23506;SDS011;11930;53.076;18.250;2022-08-03T05:29:48;13.73;;;7.90;;
23506;SDS011;11930;53.076;18.250;2022-08-03T05:32:15;14.27;;;7.60;;
23506;SDS011;11930;53.076;18.250;2022-08-03T05:34:42;14.15;;;7.30;;
23506;SDS011;11930;53.076;18.250;2022-08-03T05:37:09;10.82;;;7.40;;
23506;SDS011;11930;53.076;18.250;2022-08-03T05:39:35;11.50;;;7.28;;
23506;SDS011;11930;53.076;18.250;2022-08-03T05:42:01;18.25;;;7.97;;
23506;SDS011;11930;53.076;18.250;2022-08-03T05:44:27;11.15;;;6.68;;
23506;SDS011;11930;53.076;18.250;2022-08-03T05:46:53;9.40;;;7.10;;
23506;SDS011;11930;53.076;18.250;2022-08-03T05:49:19;11.32;;;7.63;;
23506;SDS011;11930;53.076;18.250;2022-08-03T05:51:46;10.73;;;7.18;;
23506;SDS011;11930;53.076;18.250;2022-08-03T05:54:12;17.30;;;7.38;;
23506;SDS011;11930;53.076;18.250;2022-08-03T05:56:38;18.95;;;7.93;;
23506;SDS011;11930;53.076;18.250;2022-08-03T05:59:07;17.45;;;7.82;;
23506;SDS011;11930;53.076;18.250;2022-08-03T06:01:32;12.38;;;7.30;;
23506;SDS011;11930;53.076;18.250;2022-08-03T06:03:58;12.93;;;7.68;;
23506;SDS011;11930;53.076;18.250;2022-08-03T06:06:24;15.70;;;7.95;;
23506;SDS011;11930;53.076;18.250;2022-08-03T06:08:50;13.50;;;7.50;;
23506;SDS011;11930;53.076;18.250;2022-08-03T06:11:17;12.60;;;8.20;;
23506;SDS011;11930;53.076;18.250;2022-08-03T06:13:43;13.05;;;7.95;;
23506;SDS011;11930;53.076;18.250;2022-08-03T06:16:09;12.38;;;7.93;;
23506;SDS011;11930;53.076;18.250;2022-08-03T06:18:35;14.90;;;8.20;;
23506;SDS011;11930;53.076;18.250;2022-08-03T06:21:02;15.93;;;7.80;;
23506;SDS011;11930;53.076;18.250;2022-08-03T06:23:28;11.25;;;7.40;;
23506;SDS011;11930;53.076;18.250;2022-08-03T06:25:54;15.93;;;7.60;;
23506;SDS011;11930;53.076;18.250;2022-08-03T06:28:20;10.35;;;7.72;;
23506;SDS011;11930;53.076;18.250;2022-08-03T06:30:46;14.35;;;8.35;;
23506;SDS011;11930;53.076;18.250;2022-08-03T06:33:12;14.25;;;7.88;;
23506;SDS011;11930;53.076;18.250;2022-08-03T06:35:38;13.57;;;7.63;;
23506;SDS011;11930;53.076;18.250;2022-08-03T06:38:04;13.35;;;8.20;;
23506;SDS011;11930;53.076;18.250;2022-08-03T06:40:30;10.43;;;7.93;;
23506;SDS011;11930;53.076;18.250;2022-08-03T06:43:00;11.93;;;7.28;;
23506;SDS011;11930;53.076;18.250;2022-08-03T06:45:27;10.23;;;7.15;;
23506;SDS011;11930;53.076;18.250;2022-08-03T06:48:03;11.40;;;7.50;;
23506;SDS011;11930;53.076;18.250;2022-08-03T06:50:31;12.05;;;7.40;;
23506;SDS011;11930;53.076;18.250;2022-08-03T06:52:58;9.68;;;7.05;;
23506;SDS011;11930;53.076;18.250;2022-08-03T06:55:24;9.93;;;6.95;;
23506;SDS011;11930;53.076;18.250;2022-08-03T06:57:50;8.35;;;5.38;;
23506;SDS011;11930;53.076;18.250;2022-08-03T07:00:17;8.57;;;5.85;;
23506;SDS011;11930;53.076;18.250;2022-08-03T07:02:43;6.75;;;4.75;;
23506;SDS011;11930;53.076;18.250;2022-08-03T07:05:09;7.60;;;4.70;;
23506;SDS011;11930;53.076;18.250;2022-08-03T07:07:36;6.40;;;4.30;;
23506;SDS011;11930;53.076;18.250;2022-08-03T07:10:02;7.18;;;4.00;;
23506;SDS011;11930;53.076;18.250;2022-08-03T07:12:30;6.07;;;4.00;;
23506;SDS011;11930;53.076;18.250;2022-08-03T07:14:56;7.75;;;3.70;;
23506;SDS011;11930;53.076;18.250;2022-08-03T07:17:23;6.00;;;3.85;;
23506;SDS011;11930;53.076;18.250;2022-08-03T07:19:49;5.65;;;3.60;;
23506;SDS011;11930;53.076;18.250;2022-08-03T07:22:16;3.75;;;3.20;;
23506;SDS011;11930;53.076;18.250;2022-08-03T07:24:42;6.00;;;3.55;;
23506;SDS011;11930;53.076;18.250;2022-08-03T07:27:08;8.40;;;3.75;;
23506;SDS011;11930;53.076;18.250;2022-08-03T07:29:35;6.03;;;3.72;;
23506;SDS011;11930;53.076;18.250;2022-08-03T07:32:02;7.15;;;3.55;;
23506;SDS011;11930;53.076;18.250;2022-08-03T07:34:29;6.25;;;3.25;;
23506;SDS011;11930;53.076;18.250;2022-08-03T07:36:55;6.38;;;3.60;;
23506;SDS011;11930;53.076;18.250;2022-08-03T07:39:22;4.82;;;3.03;;
23506;SDS011;11930;53.076;18.250;2022-08-03T07:41:48;5.75;;;3.25;;
23506;SDS011;11930;53.076;18.250;2022-08-03T07:44:19;3.97;;;3.10;;
23506;SDS011;11930;53.076;18.250;2022-08-03T07:46:45;7.32;;;3.70;;
23506;SDS011;11930;53.076;18.250;2022-08-03T07:49:14;5.07;;;2.67;;
23506;SDS011;11930;53.076;18.250;2022-08-03T07:51:43;5.65;;;3.17;;
23506;SDS011;11930;53.076;18.250;2022-08-03T07:54:09;5.75;;;3.30;;
23506;SDS011;11930;53.076;18.250;2022-08-03T07:56:35;4.45;;;3.10;;
23506;SDS011;11930;53.076;18.250;2022-08-03T07:59:01;4.55;;;2.70;;
23506;SDS011;11930;53.076;18.250;2022-08-03T08:01:28;7.63;;;3.67;;
23506;SDS011;11930;53.076;18.250;2022-08-03T08:03:54;7.45;;;3.58;;
23506;SDS011;11930;53.076;18.250;2022-08-03T08:06:20;4.50;;;2.90;;
23506;SDS011;11930;53.076;18.250;2022-08-03T08:08:46;6.60;;;2.60;;
23506;SDS011;11930;53.076;18.250;2022-08-03T08:11:14;7.13;;;3.30;;
23506;SDS011;11930;53.076;18.250;2022-08-03T08:13:40;6.60;;;3.10;;
23506;SDS011;11930;53.076;18.250;2022-08-03T08:16:06;5.68;;;3.50;;
23506;SDS011;11930;53.076;18.250;2022-08-03T08:18:32;4.68;;;3.42;;
23506;SDS011;11930;53.076;18.250;2022-08-03T08:20:58;9.23;;;4.00;;
23506;SDS011;11930;53.076;18.250;2022-08-03T08:23:25;9.50;;;4.07;;
23506;SDS011;11930;53.076;18.250;2022-08-03T08:25:52;12.65;;;4.50;;
23506;SDS011;11930;53.076;18.250;2022-08-03T08:28:19;7.07;;;3.90;;
23506;SDS011;11930;53.076;18.250;2022-08-03T08:30:45;3.80;;;3.20;;
23506;SDS011;11930;53.076;18.250;2022-08-03T08:33:12;7.63;;;3.15;;
23506;SDS011;11930;53.076;18.250;2022-08-03T08:35:38;6.07;;;3.10;;
23506;SDS011;11930;53.076;18.250;2022-08-03T08:38:04;4.47;;;3.35;;
23506;SDS011;11930;53.076;18.250;2022-08-03T08:40:30;5.50;;;3.20;;
23506;SDS011;11930;53.076;18.250;2022-08-03T08:42:56;5.38;;;3.08;;
23506;SDS011;11930;53.076;18.250;2022-08-03T08:45:22;4.95;;;2.67;;
23506;SDS011;11930;53.076;18.250;2022-08-03T08:47:49;4.70;;;2.88;;
23506;SDS011;11930;53.076;18.250;2022-08-03T08:50:17;8.98;;;3.45;;
23506;SDS011;11930;53.076;18.250;2022-08-03T08:52:45;3.97;;;3.08;;
23506;SDS011;11930;53.076;18.250;2022-08-03T08:55:13;4.68;;;2.70;;
23506;SDS011;11930;53.076;18.250;2022-08-03T08:57:46;4.70;;;3.15;;
23506;SDS011;11930;53.076;18.250;2022-08-03T09:00:17;6.57;;;2.78;;
23506;SDS011;11930;53.076;18.250;2022-08-03T09:02:44;5.05;;;2.60;;
23506;SDS011;11930;53.076;18.250;2022-08-03T09:05:11;4.82;;;2.60;;
23506;SDS011;11930;53.076;18.250;2022-08-03T09:07:38;7.82;;;2.40;;
23506;SDS011;11930;53.076;18.250;2022-08-03T09:10:09;3.72;;;2.20;;
23506;SDS011;11930;53.076;18.250;2022-08-03T09:12:45;5.15;;;2.25;;
23506;SDS011;11930;53.076;18.250;2022-08-03T09:15:39;6.43;;;2.40;;
23506;SDS011;11930;53.076;18.250;2022-08-03T09:18:11;7.50;;;3.10;;
23506;SDS011;11930;53.076;18.250;2022-08-03T09:21:21;3.95;;;2.70;;
23506;SDS011;11930;53.076;18.250;2022-08-03T09:23:58;6.28;;;3.05;;
23506;SDS011;11930;53.076;18.250;2022-08-03T09:26:26;6.30;;;2.50;;
23506;SDS011;11930;53.076;18.250;2022-08-03T09:28:57;4.68;;;2.80;;
23506;SDS011;11930;53.076;18.250;2022-08-03T09:34:00;4.25;;;2.13;;
23506;SDS011;11930;53.076;18.250;2022-08-03T09:37:00;3.15;;;2.20;;
23506;SDS011;11930;53.076;18.250;2022-08-03T09:39:22;6.22;;;2.60;;
23506;SDS011;11930;53.076;18.250;2022-08-03T09:42:05;10.90;;;3.38;;
23506;SDS011;11930;53.076;18.250;2022-08-03T09:44:35;3.63;;;2.58;;
23506;SDS011;11930;53.076;18.250;2022-08-03T09:47:06;4.28;;;2.60;;
23506;SDS011;11930;53.076;18.250;2022-08-03T09:49:37;4.85;;;2.50;;
23506;SDS011;11930;53.076;18.250;2022-08-03T09:52:50;3.22;;;2.42;;
23506;SDS011;11930;53.076;18.250;2022-08-03T09:55:02;5.93;;;2.63;;
23506;SDS011;11930;53.076;18.250;2022-08-03T09:57:33;6.95;;;3.00;;
23506;SDS011;11930;53.076;18.250;2022-08-03T10:00:09;3.58;;;2.67;;
23506;SDS011;11930;53.076;18.250;2022-08-03T10:02:43;4.75;;;2.85;;
23506;SDS011;11930;53.076;18.250;2022-08-03T10:05:10;2.97;;;2.38;;
23506;SDS011;11930;53.076;18.250;2022-08-03T10:07:43;3.90;;;2.83;;
23506;SDS011;11930;53.076;18.250;2022-08-03T10:10:14;3.03;;;2.53;;
23506;SDS011;11930;53.076;18.250;2022-08-03T10:12:42;4.60;;;2.40;;
23506;SDS011;11930;53.076;18.250;2022-08-03T10:15:09;6.82;;;3.53;;
23506;SDS011;11930;53.076;18.250;2022-08-03T10:17:36;4.00;;;2.30;;
23506;SDS011;11930;53.076;18.250;2022-08-03T10:20:04;3.58;;;2.45;;
23506;SDS011;11930;53.076;18.250;2022-08-03T10:22:32;5.43;;;2.60;;
23506;SDS011;11930;53.076;18.250;2022-08-03T10:25:05;3.47;;;2.38;;
23506;SDS011;11930;53.076;18.250;2022-08-03T10:27:38;4.65;;;2.58;;
23506;SDS011;11930;53.076;18.250;2022-08-03T10:30:06;4.43;;;2.55;;
23506;SDS011;11930;53.076;18.250;2022-08-03T10:35:05;4.45;;;2.45;;
23506;SDS011;11930;53.076;18.250;2022-08-03T10:37:46;5.30;;;2.50;;
23506;SDS011;11930;53.076;18.250;2022-08-03T10:40:16;3.17;;;2.35;;
23506;SDS011;11930;53.076;18.250;2022-08-03T10:42:46;5.68;;;2.35;;
23506;SDS011;11930;53.076;18.250;2022-08-03T10:45:19;5.90;;;2.72;;
23506;SDS011;11930;53.076;18.250;2022-08-03T10:47:50;4.35;;;2.35;;
23506;SDS011;11930;53.076;18.250;2022-08-03T10:50:20;4.63;;;2.38;;
23506;SDS011;11930;53.076;18.250;2022-08-03T10:53:02;4.40;;;2.53;;
23506;SDS011;11930;53.076;18.250;2022-08-03T10:55:52;4.95;;;2.20;;
23506;SDS011;11930;53.076;18.250;2022-08-03T11:01:05;3.85;;;2.38;;
23506;SDS011;11930;53.076;18.250;2022-08-03T11:03:33;3.08;;;2.40;;
23506;SDS011;11930;53.076;18.250;2022-08-03T11:11:34;3.67;;;2.50;;
23506;SDS011;11930;53.076;18.250;2022-08-03T11:14:05;3.88;;;2.10;;
23506;SDS011;11930;53.076;18.250;2022-08-03T11:16:35;3.80;;;2.30;;
23506;SDS011;11930;53.076;18.250;2022-08-03T11:19:07;3.63;;;2.20;;
23506;SDS011;11930;53.076;18.250;2022-08-03T11:35:25;4.28;;;2.58;;
23506;SDS011;11930;53.076;18.250;2022-08-03T11:40:37;6.32;;;2.47;;
23506;SDS011;11930;53.076;18.250;2022-08-03T11:45:59;5.35;;;2.50;;
23506;SDS011;11930;53.076;18.250;2022-08-03T11:48:32;2.60;;;2.30;;
23506;SDS011;11930;53.076;18.250;2022-08-03T11:51:00;4.75;;;2.30;;
23506;SDS011;11930;53.076;18.250;2022-08-03T11:53:27;6.85;;;2.42;;
23506;SDS011;11930;53.076;18.250;2022-08-03T11:55:56;3.83;;;2.50;;
23506;SDS011;11930;53.076;18.250;2022-08-03T11:58:24;4.40;;;2.53;;
23506;SDS011;11930;53.076;18.250;2022-08-03T12:00:51;3.70;;;2.17;;
23506;SDS011;11930;53.076;18.250;2022-08-03T12:03:18;3.53;;;2.40;;
23506;SDS011;11930;53.076;18.250;2022-08-03T12:05:46;3.42;;;2.75;;
23506;SDS011;11930;53.076;18.250;2022-08-03T12:08:14;3.28;;;2.20;;
23506;SDS011;11930;53.076;18.250;2022-08-03T12:10:49;4.57;;;2.60;;
23506;SDS011;11930;53.076;18.250;2022-08-03T12:13:16;5.53;;;2.85;;
23506;SDS011;11930;53.076;18.250;2022-08-03T12:15:42;14.20;;;3.33;;
23506;SDS011;11930;53.076;18.250;2022-08-03T12:18:16;4.57;;;2.60;;
23506;SDS011;11930;53.076;18.250;2022-08-03T12:20:43;3.75;;;2.45;;
23506;SDS011;11930;53.076;18.250;2022-08-03T12:23:10;3.90;;;2.50;;
23506;SDS011;11930;53.076;18.250;2022-08-03T12:25:37;3.05;;;2.25;;
23506;SDS011;11930;53.076;18.250;2022-08-03T12:28:05;3.40;;;2.90;;
23506;SDS011;11930;53.076;18.250;2022-08-03T12:30:33;4.85;;;2.60;;
23506;SDS011;11930;53.076;18.250;2022-08-03T12:33:10;4.03;;;2.30;;
23506;SDS011;11930;53.076;18.250;2022-08-03T12:35:40;5.63;;;2.70;;
23506;SDS011;11930;53.076;18.250;2022-08-03T12:38:06;4.70;;;2.55;;
23506;SDS011;11930;53.076;18.250;2022-08-03T12:40:32;4.63;;;2.50;;
23506;SDS011;11930;53.076;18.250;2022-08-03T12:42:58;4.07;;;2.40;;
23506;SDS011;11930;53.076;18.250;2022-08-03T12:45:26;3.55;;;2.58;;
23506;SDS011;11930;53.076;18.250;2022-08-03T12:47:54;3.67;;;2.55;;
23506;SDS011;11930;53.076;18.250;2022-08-03T12:50:30;4.00;;;2.78;;
23506;SDS011;11930;53.076;18.250;2022-08-03T12:52:58;9.43;;;3.30;;
23506;SDS011;11930;53.076;18.250;2022-08-03T12:55:25;3.42;;;2.65;;
23506;SDS011;11930;53.076;18.250;2022-08-03T12:58:27;7.63;;;2.85;;
23506;SDS011;11930;53.076;18.250;2022-08-03T13:00:58;4.22;;;2.58;;
23506;SDS011;11930;53.076;18.250;2022-08-03T13:03:24;3.30;;;2.60;;
23506;SDS011;11930;53.076;18.250;2022-08-03T13:05:50;4.85;;;2.50;;
23506;SDS011;11930;53.076;18.250;2022-08-03T13:08:19;5.57;;;2.90;;
23506;SDS011;11930;53.076;18.250;2022-08-03T13:10:47;4.63;;;3.08;;
23506;SDS011;11930;53.076;18.250;2022-08-03T13:13:13;5.78;;;2.90;;
23506;SDS011;11930;53.076;18.250;2022-08-03T13:15:39;4.53;;;2.80;;
23506;SDS011;11930;53.076;18.250;2022-08-03T13:18:06;4.65;;;2.80;;
23506;SDS011;11930;53.076;18.250;2022-08-03T13:20:32;4.63;;;2.63;;
23506;SDS011;11930;53.076;18.250;2022-08-03T13:22:59;5.85;;;2.72;;
23506;SDS011;11930;53.076;18.250;2022-08-03T13:25:25;8.80;;;3.15;;
23506;SDS011;11930;53.076;18.250;2022-08-03T13:27:51;7.22;;;3.50;;
23506;SDS011;11930;53.076;18.250;2022-08-03T13:30:17;5.45;;;3.20;;
23506;SDS011;11930;53.076;18.250;2022-08-03T13:32:43;6.18;;;2.95;;
23506;SDS011;11930;53.076;18.250;2022-08-03T13:35:09;5.18;;;3.20;;
23506;SDS011;11930;53.076;18.250;2022-08-03T13:37:36;4.38;;;2.95;;
23506;SDS011;11930;53.076;18.250;2022-08-03T13:40:04;6.03;;;3.08;;
23506;SDS011;11930;53.076;18.250;2022-08-03T13:42:33;15.20;;;3.80;;
23506;SDS011;11930;53.076;18.250;2022-08-03T13:45:00;3.45;;;2.92;;
23506;SDS011;11930;53.076;18.250;2022-08-03T13:47:29;8.10;;;3.05;;
23506;SDS011;11930;53.076;18.250;2022-08-03T13:49:56;8.20;;;3.20;;
23506;SDS011;11930;53.076;18.250;2022-08-03T13:52:22;4.40;;;3.13;;
23506;SDS011;11930;53.076;18.250;2022-08-03T13:54:48;4.22;;;3.00;;
23506;SDS011;11930;53.076;18.250;2022-08-03T13:57:14;6.03;;;2.92;;
23506;SDS011;11930;53.076;18.250;2022-08-03T13:59:40;3.55;;;2.72;;
23506;SDS011;11930;53.076;18.250;2022-08-03T14:02:06;10.68;;;3.45;;
23506;SDS011;11930;53.076;18.250;2022-08-03T14:04:31;5.40;;;3.20;;
23506;SDS011;11930;53.076;18.250;2022-08-03T14:06:57;5.32;;;3.40;;
23506;SDS011;11930;53.076;18.250;2022-08-03T14:09:23;4.82;;;3.00;;
23506;SDS011;11930;53.076;18.250;2022-08-03T14:11:49;3.88;;;3.20;;
23506;SDS011;11930;53.076;18.250;2022-08-03T14:14:16;4.88;;;3.08;;
23506;SDS011;11930;53.076;18.250;2022-08-03T14:16:41;7.32;;;3.22;;
23506;SDS011;11930;53.076;18.250;2022-08-03T14:19:07;5.90;;;3.10;;
23506;SDS011;11930;53.076;18.250;2022-08-03T14:21:33;4.30;;;3.20;;
23506;SDS011;11930;53.076;18.250;2022-08-03T14:24:00;5.25;;;3.25;;
23506;SDS011;11930;53.076;18.250;2022-08-03T14:26:26;4.32;;;3.00;;
23506;SDS011;11930;53.076;18.250;2022-08-03T14:28:55;5.63;;;3.25;;
23506;SDS011;11930;53.076;18.250;2022-08-03T14:31:20;6.32;;;3.38;;
23506;SDS011;11930;53.076;18.250;2022-08-03T14:33:47;7.43;;;3.63;;
23506;SDS011;11930;53.076;18.250;2022-08-03T14:36:13;5.38;;;3.15;;
23506;SDS011;11930;53.076;18.250;2022-08-03T14:38:39;6.22;;;3.40;;
23506;SDS011;11930;53.076;18.250;2022-08-03T14:41:05;5.53;;;2.95;;
23506;SDS011;11930;53.076;18.250;2022-08-03T14:43:32;5.13;;;2.92;;
23506;SDS011;11930;53.076;18.250;2022-08-03T14:45:58;3.40;;;3.05;;
23506;SDS011;11930;53.076;18.250;2022-08-03T14:48:23;4.22;;;3.22;;
23506;SDS011;11930;53.076;18.250;2022-08-03T14:50:51;3.40;;;3.03;;
23506;SDS011;11930;53.076;18.250;2022-08-03T14:53:19;7.30;;;3.30;;
23506;SDS011;11930;53.076;18.250;2022-08-03T14:55:46;4.63;;;3.20;;
23506;SDS011;11930;53.076;18.250;2022-08-03T14:58:14;5.13;;;3.40;;
23506;SDS011;11930;53.076;18.250;2022-08-03T15:00:40;4.70;;;3.05;;
23506;SDS011;11930;53.076;18.250;2022-08-03T15:03:06;4.57;;;3.28;;
23506;SDS011;11930;53.076;18.250;2022-08-03T15:05:32;5.60;;;3.33;;
23506;SDS011;11930;53.076;18.250;2022-08-03T15:07:58;8.82;;;4.03;;
23506;SDS011;11930;53.076;18.250;2022-08-03T15:10:24;7.85;;;5.00;;
23506;SDS011;11930;53.076;18.250;2022-08-03T15:12:50;6.53;;;5.18;;
23506;SDS011;11930;53.076;18.250;2022-08-03T15:15:18;6.25;;;3.70;;
23506;SDS011;11930;53.076;18.250;2022-08-03T15:17:44;5.22;;;3.85;;
23506;SDS011;11930;53.076;18.250;2022-08-03T15:20:10;7.35;;;4.15;;